EGPE/INV METAR and TAF weather

Enter ICAO airport designator
Station Type Date Time Source
EGPE METAR 2022/01/27 22:50 UTC NOAA

EGPE 272250Z AUTO 21007KT 9999 FEW045/// 04/02 Q1029


Station Type Date Time Source
EGPE Decoded METAR 2022/01/27 22:50 UTC NOAA

Inverness / Dalcross, United Kingdom (EGPE) 57-32N 004-03W 0M
Jan 27, 2022 - 05:50 PM EST / 2022.01.27 2250 UTC
Wind: from the SSW (210 degrees) at 8 MPH (7 KT):0
Visibility: greater than 7 mile(s):0
Sky conditions: mostly clear
Temperature: 39 F (4 C)
Dew Point: 35 F (2 C)
Relative Humidity: 86%
Pressure (altimeter): 30.39 in. Hg (1029 hPa)
ob: EGPE 272250Z AUTO 21007KT 9999 FEW045/// 04/02 Q1029
cycle: 23

Station Type Date Time Source
EGPE TAF UTC NOAA

Error!

Example: see airport list